Terminal Aerodrome Forecast
Issued by NWS Bismarck, ND

Home | Current Version | Previous Version | Graphics & Text | Print | Product List | Glossary On
Versions: 1 2 3 4 5 6 7 8 9 10 11 12 13 14 15 16 17 18
000
FTUS43 KBIS 291139
TAFBIS
TAF
KBIS 291139Z 2912/3012 27005KT P6SM SCT100
     FM291500 32009KT P6SM SCT100
     FM292200 02007KT P6SM BKN070
     FM300300 08007KT P6SM SCT070=

USA.gov is the U.S. government's official web portal to all federal, state and local government web resources and services.